sensor_id;sensor_type;location;lat;lon;timestamp;pressure;altitude;pressure_sealevel;temperature;humidity
61109;BME280;46995;55.740;37.402;2024-02-21T00:02:10;100360.34;;;-7.47;75.73
61109;BME280;46995;55.740;37.402;2024-02-21T00:04:36;100356.06;;;-7.45;75.57
61109;BME280;46995;55.740;37.402;2024-02-21T00:07:04;100356.06;;;-7.45;75.50
61109;BME280;46995;55.740;37.402;2024-02-21T00:09:29;100360.34;;;-7.47;75.79
61109;BME280;46995;55.740;37.402;2024-02-21T00:11:55;100357.75;;;-7.47;75.66
61109;BME280;46995;55.740;37.402;2024-02-21T00:14:22;100353.50;;;-7.50;75.59
61109;BME280;46995;55.740;37.402;2024-02-21T00:16:48;100356.06;;;-7.53;75.30
61109;BME280;46995;55.740;37.402;2024-02-21T00:19:14;100345.81;;;-7.54;75.64
61109;BME280;46995;55.740;37.402;2024-02-21T00:21:40;100347.53;;;-7.56;75.78
61109;BME280;46995;55.740;37.402;2024-02-21T00:24:06;100350.06;;;-7.58;76.08
61109;BME280;46995;55.740;37.402;2024-02-21T00:26:32;100353.50;;;-7.60;75.86
61109;BME280;46995;55.740;37.402;2024-02-21T00:29:02;100342.41;;;-7.59;76.22
61109;BME280;46995;55.740;37.402;2024-02-21T00:31:27;100342.38;;;-7.56;76.16
61109;BME280;46995;55.740;37.402;2024-02-21T00:33:53;100344.94;;;-7.56;75.91
61109;BME280;46995;55.740;37.402;2024-02-21T00:36:19;100343.25;;;-7.57;76.59
61109;BME280;46995;55.740;37.402;2024-02-21T00:38:45;100338.97;;;-7.55;76.41
61109;BME280;46995;55.740;37.402;2024-02-21T00:41:11;100329.56;;;-7.52;76.79
61109;BME280;46995;55.740;37.402;2024-02-21T00:43:36;100327.00;;;-7.41;76.85
61109;BME280;46995;55.740;37.402;2024-02-21T00:46:02;100335.53;;;-7.30;76.69
61109;BME280;46995;55.740;37.402;2024-02-21T00:48:28;100332.09;;;-7.20;76.10
61109;BME280;46995;55.740;37.402;2024-02-21T00:50:54;100326.09;;;-7.07;75.92
61109;BME280;46995;55.740;37.402;2024-02-21T00:53:19;100318.34;;;-6.92;75.80
61109;BME280;46995;55.740;37.402;2024-02-21T00:55:48;100318.28;;;-6.79;75.59
61109;BME280;46995;55.740;37.402;2024-02-21T00:58:22;100308.84;;;-6.73;75.55
61109;BME280;46995;55.740;37.402;2024-02-21T01:00:48;100314.84;;;-6.65;74.97
61109;BME280;46995;55.740;37.402;2024-02-21T01:03:13;100310.50;;;-6.64;74.71
61109;BME280;46995;55.740;37.402;2024-02-21T01:05:39;100301.09;;;-6.61;75.32
61109;BME280;46995;55.740;37.402;2024-02-21T01:08:05;100294.22;;;-6.56;74.82
61109;BME280;46995;55.740;37.402;2024-02-21T01:10:31;100297.63;;;-6.52;74.86
61109;BME280;46995;55.740;37.402;2024-02-21T01:12:56;100297.63;;;-6.49;74.83
61109;BME280;46995;55.740;37.402;2024-02-21T01:15:22;100296.75;;;-6.47;74.47
61109;BME280;46995;55.740;37.402;2024-02-21T01:17:48;100292.44;;;-6.40;74.90
61109;BME280;46995;55.740;37.402;2024-02-21T01:20:16;100288.13;;;-6.38;74.39
61109;BME280;46995;55.740;37.402;2024-02-21T01:22:43;100297.53;;;-6.34;74.18
61109;BME280;46995;55.740;37.402;2024-02-21T01:25:08;100293.19;;;-6.27;74.20
61109;BME280;46995;55.740;37.402;2024-02-21T01:27:34;100292.31;;;-6.22;74.44
61109;BME280;46995;55.740;37.402;2024-02-21T01:30:01;100294.03;;;-6.21;74.58
61109;BME280;46995;55.740;37.402;2024-02-21T01:32:28;100284.59;;;-6.19;74.21
61109;BME280;46995;55.740;37.402;2024-02-21T01:34:54;100285.41;;;-6.14;73.90
61109;BME280;46995;55.740;37.402;2024-02-21T01:37:20;100276.84;;;-6.13;74.32
61109;BME280;46995;55.740;37.402;2024-02-21T01:39:45;100282.00;;;-6.13;73.71
61109;BME280;46995;55.740;37.402;2024-02-21T01:42:14;100280.28;;;-6.14;73.99
61109;BME280;46995;55.740;37.402;2024-02-21T01:44:40;100275.09;;;-6.11;73.51
61109;BME280;46995;55.740;37.402;2024-02-21T01:47:05;100276.81;;;-6.10;73.95
61109;BME280;46995;55.740;37.402;2024-02-21T01:49:31;100271.69;;;-6.10;74.13
61109;BME280;46995;55.740;37.402;2024-02-21T01:52:00;100271.63;;;-6.07;74.04
61109;BME280;46995;55.740;37.402;2024-02-21T01:54:27;100275.88;;;-6.01;73.61
61109;BME280;46995;55.740;37.402;2024-02-21T01:56:54;100264.75;;;-5.98;73.79
61109;BME280;46995;55.740;37.402;2024-02-21T01:59:20;100263.88;;;-5.99;73.39
61109;BME280;46995;55.740;37.402;2024-02-21T02:01:47;100264.75;;;-6.02;74.32
61109;BME280;46995;55.740;37.402;2024-02-21T02:04:14;100263.03;;;-6.01;74.33
61109;BME280;46995;55.740;37.402;2024-02-21T02:06:40;100263.03;;;-5.98;74.42
61109;BME280;46995;55.740;37.402;2024-02-21T02:09:06;100255.28;;;-5.95;74.33
61109;BME280;46995;55.740;37.402;2024-02-21T02:11:32;100257.84;;;-5.93;73.91
61109;BME280;46995;55.740;37.402;2024-02-21T02:13:58;100251.00;;;-5.91;74.02
61109;BME280;46995;55.740;37.402;2024-02-21T02:16:24;100241.53;;;-5.91;73.59
61109;BME280;46995;55.740;37.402;2024-02-21T02:18:50;100242.38;;;-5.89;73.81
61109;BME280;46995;55.740;37.402;2024-02-21T02:21:27;100252.66;;;-5.87;74.25
61109;BME280;46995;55.740;37.402;2024-02-21T02:23:54;100256.03;;;-5.85;73.92
61109;BME280;46995;55.740;37.402;2024-02-21T02:26:20;100252.59;;;-5.84;74.13
61109;BME280;46995;55.740;37.402;2024-02-21T02:28:45;100255.16;;;-5.84;73.74
61109;BME280;46995;55.740;37.402;2024-02-21T02:31:11;100255.97;;;-5.81;74.22
61109;BME280;46995;55.740;37.402;2024-02-21T02:33:37;100259.41;;;-5.79;73.77
61109;BME280;46995;55.740;37.402;2024-02-21T02:36:02;100261.06;;;-5.73;73.69
61109;BME280;46995;55.740;37.402;2024-02-21T02:38:28;100257.59;;;-5.69;74.50
61109;BME280;46995;55.740;37.402;2024-02-21T02:40:54;100251.59;;;-5.67;74.33
61109;BME280;46995;55.740;37.402;2024-02-21T02:43:19;100255.84;;;-5.64;73.71
61109;BME280;46995;55.740;37.402;2024-02-21T02:45:45;100259.25;;;-5.62;73.89
61109;BME280;46995;55.740;37.402;2024-02-21T02:48:10;100249.78;;;-5.57;73.71
61109;BME280;46995;55.740;37.402;2024-02-21T02:50:36;100237.72;;;-5.53;73.82
61109;BME280;46995;55.740;37.402;2024-02-21T02:53:02;100242.81;;;-5.49;74.04
61109;BME280;46995;55.740;37.402;2024-02-21T02:55:28;100241.09;;;-5.45;73.84
61109;BME280;46995;55.740;37.402;2024-02-21T02:57:53;100243.63;;;-5.41;73.90
61109;BME280;46995;55.740;37.402;2024-02-21T03:00:19;100243.56;;;-5.38;73.79
61109;BME280;46995;55.740;37.402;2024-02-21T03:02:46;100245.28;;;-5.37;73.63
61109;BME280;46995;55.740;37.402;2024-02-21T03:05:12;100248.66;;;-5.32;74.01
61109;BME280;46995;55.740;37.402;2024-02-21T03:07:38;100241.78;;;-5.30;73.91
61109;BME280;46995;55.740;37.402;2024-02-21T03:10:04;100245.19;;;-5.28;73.97
61109;BME280;46995;55.740;37.402;2024-02-21T03:12:30;100238.31;;;-5.27;73.30
61109;BME280;46995;55.740;37.402;2024-02-21T03:14:56;100246.88;;;-5.27;73.38
61109;BME280;46995;55.740;37.402;2024-02-21T03:17:21;100240.00;;;-5.25;73.70
61109;BME280;46995;55.740;37.402;2024-02-21T03:19:48;100242.63;;;-5.29;73.59
61109;BME280;46995;55.740;37.402;2024-02-21T03:22:15;100239.22;;;-5.31;73.80
61109;BME280;46995;55.740;37.402;2024-02-21T03:24:41;100236.59;;;-5.27;73.53
61109;BME280;46995;55.740;37.402;2024-02-21T03:27:08;100240.00;;;-5.25;73.74
61109;BME280;46995;55.740;37.402;2024-02-21T03:29:33;100233.94;;;-5.21;73.36
61109;BME280;46995;55.740;37.402;2024-02-21T03:31:59;100239.91;;;-5.16;74.14
61109;BME280;46995;55.740;37.402;2024-02-21T03:34:24;100241.56;;;-5.12;73.18
61109;BME280;46995;55.740;37.402;2024-02-21T03:36:50;100238.06;;;-5.04;73.51
61109;BME280;46995;55.740;37.402;2024-02-21T03:39:19;100233.75;;;-5.04;73.97
61109;BME280;46995;55.740;37.402;2024-02-21T03:41:44;100236.28;;;-4.99;73.06
61109;BME280;46995;55.740;37.402;2024-02-21T03:44:10;100231.13;;;-4.98;73.92
61109;BME280;46995;55.740;37.402;2024-02-21T03:46:35;100226.81;;;-4.97;73.33
61109;BME280;46995;55.740;37.402;2024-02-21T03:49:01;100237.13;;;-4.97;72.86
61109;BME280;46995;55.740;37.402;2024-02-21T03:51:27;100232.84;;;-4.98;73.42
61109;BME280;46995;55.740;37.402;2024-02-21T03:53:52;100232.84;;;-4.98;73.07
61109;BME280;46995;55.740;37.402;2024-02-21T03:56:18;100237.94;;;-4.97;73.09
61109;BME280;46995;55.740;37.402;2024-02-21T03:58:43;100231.94;;;-4.94;73.28
61109;BME280;46995;55.740;37.402;2024-02-21T04:01:09;100235.34;;;-4.92;73.24
61109;BME280;46995;55.740;37.402;2024-02-21T04:03:35;100230.16;;;-4.91;73.90
61109;BME280;46995;55.740;37.402;2024-02-21T04:06:00;100227.63;;;-4.92;72.63
61109;BME280;46995;55.740;37.402;2024-02-21T04:08:26;100238.72;;;-4.90;72.64
61109;BME280;46995;55.740;37.402;2024-02-21T04:10:51;100227.56;;;-4.89;73.32
61109;BME280;46995;55.740;37.402;2024-02-21T04:13:18;100232.72;;;-4.89;73.30
61109;BME280;46995;55.740;37.402;2024-02-21T04:15:45;100237.00;;;-4.90;72.89
61109;BME280;46995;55.740;37.402;2024-02-21T04:18:10;100237.03;;;-4.91;73.25
61109;BME280;46995;55.740;37.402;2024-02-21T04:20:36;100237.91;;;-4.92;72.64
61109;BME280;46995;55.740;37.402;2024-02-21T04:23:02;100237.00;;;-4.90;73.36
61109;BME280;46995;55.740;37.402;2024-02-21T04:25:28;100240.38;;;-4.85;72.92
61109;BME280;46995;55.740;37.402;2024-02-21T04:27:54;100242.03;;;-4.81;73.26
61109;BME280;46995;55.740;37.402;2024-02-21T04:30:20;100241.16;;;-4.78;73.42
61109;BME280;46995;55.740;37.402;2024-02-21T04:32:45;100240.31;;;-4.77;73.23
61109;BME280;46995;55.740;37.402;2024-02-21T04:35:11;100240.31;;;-4.77;72.87
61109;BME280;46995;55.740;37.402;2024-02-21T04:37:36;100235.16;;;-4.80;73.18
61109;BME280;46995;55.740;37.402;2024-02-21T04:40:02;100236.91;;;-4.81;73.34
61109;BME280;46995;55.740;37.402;2024-02-21T04:42:28;100235.16;;;-4.80;73.31
61109;BME280;46995;55.740;37.402;2024-02-21T04:44:54;100242.09;;;-4.82;73.01
61109;BME280;46995;55.740;37.402;2024-02-21T04:47:20;100238.66;;;-4.84;73.43
61109;BME280;46995;55.740;37.402;2024-02-21T04:49:45;100235.16;;;-4.80;73.03
61109;BME280;46995;55.740;37.402;2024-02-21T04:52:11;100238.59;;;-4.78;73.05
61109;BME280;46995;55.740;37.402;2024-02-21T04:54:37;100243.63;;;-4.71;73.46
61109;BME280;46995;55.740;37.402;2024-02-21T04:57:02;100241.91;;;-4.68;73.44
61109;BME280;46995;55.740;37.402;2024-02-21T04:59:28;100232.44;;;-4.66;72.97
61109;BME280;46995;55.740;37.402;2024-02-21T05:01:54;100234.16;;;-4.67;73.33
61109;BME280;46995;55.740;37.402;2024-02-21T05:04:20;100234.97;;;-4.63;73.19
61109;BME280;46995;55.740;37.402;2024-02-21T05:06:46;100235.75;;;-4.60;73.26
61109;BME280;46995;55.740;37.402;2024-02-21T05:09:11;100239.22;;;-4.61;73.38
61109;BME280;46995;55.740;37.402;2024-02-21T05:11:37;100239.22;;;-4.61;72.34
61109;BME280;46995;55.740;37.402;2024-02-21T05:14:03;100238.34;;;-4.60;73.46
61109;BME280;46995;55.740;37.402;2024-02-21T05:16:29;100243.44;;;-4.55;73.48
61109;BME280;46995;55.740;37.402;2024-02-21T05:18:55;100243.38;;;-4.51;73.25
61109;BME280;46995;55.740;37.402;2024-02-21T05:21:25;100241.59;;;-4.46;73.52
61109;BME280;46995;55.740;37.402;2024-02-21T05:23:51;100238.94;;;-4.40;73.13
61109;BME280;46995;55.740;37.402;2024-02-21T05:26:23;100240.59;;;-4.36;72.86
61109;BME280;46995;55.740;37.402;2024-02-21T05:28:49;100239.69;;;-4.33;73.14
61109;BME280;46995;55.740;37.402;2024-02-21T05:31:15;100237.94;;;-4.33;72.70
61109;BME280;46995;55.740;37.402;2024-02-21T05:33:42;100236.16;;;-4.28;73.32
61109;BME280;46995;55.740;37.402;2024-02-21T05:36:08;100234.38;;;-4.22;72.69
61109;BME280;46995;55.740;37.402;2024-02-21T05:38:33;100235.97;;;-4.14;73.04
61109;BME280;46995;55.740;37.402;2024-02-21T05:40:59;100229.00;;;-4.09;72.47
61109;BME280;46995;55.740;37.402;2024-02-21T05:43:25;100228.94;;;-4.06;72.25
61109;BME280;46995;55.740;37.402;2024-02-21T05:45:50;100225.50;;;-4.05;72.11
61109;BME280;46995;55.740;37.402;2024-02-21T05:48:16;100228.06;;;-4.03;72.31
61109;BME280;46995;55.740;37.402;2024-02-21T05:50:41;100228.84;;;-3.98;72.57
61109;BME280;46995;55.740;37.402;2024-02-21T05:53:07;100231.34;;;-3.95;71.93
61109;BME280;46995;55.740;37.402;2024-02-21T05:55:33;100239.13;;;-3.97;72.48
61109;BME280;46995;55.740;37.402;2024-02-21T05:57:58;100233.06;;;-3.94;72.33
61109;BME280;46995;55.740;37.402;2024-02-21T06:00:43;100234.72;;;-3.90;71.94
61109;BME280;46995;55.740;37.402;2024-02-21T06:03:08;100243.31;;;-3.91;71.31
61109;BME280;46995;55.740;37.402;2024-02-21T06:05:40;100236.59;;;-4.01;71.23
61109;BME280;46995;55.740;37.402;2024-02-21T06:08:05;100232.38;;;-4.04;72.11
61109;BME280;46995;55.740;37.402;2024-02-21T06:10:31;100232.25;;;-3.98;71.71
61109;BME280;46995;55.740;37.402;2024-02-21T06:12:57;100245.06;;;-3.92;72.01
61109;BME280;46995;55.740;37.402;2024-02-21T06:15:22;100236.44;;;-3.89;71.29
61109;BME280;46995;55.740;37.402;2024-02-21T06:17:48;100237.28;;;-3.90;72.32
61109;BME280;46995;55.740;37.402;2024-02-21T06:20:15;100243.22;;;-3.85;72.21
61109;BME280;46995;55.740;37.402;2024-02-21T06:22:41;100234.56;;;-3.81;71.69
61109;BME280;46995;55.740;37.402;2024-02-21T06:25:07;100236.25;;;-3.80;72.14
61109;BME280;46995;55.740;37.402;2024-02-21T06:27:33;100231.88;;;-3.73;71.97
61109;BME280;46995;55.740;37.402;2024-02-21T06:29:58;100233.38;;;-3.62;72.26
61109;BME280;46995;55.740;37.402;2024-02-21T06:32:24;100234.97;;;-3.55;71.93
61109;BME280;46995;55.740;37.402;2024-02-21T06:34:50;100242.59;;;-3.49;71.73
61109;BME280;46995;55.740;37.402;2024-02-21T06:37:17;100239.06;;;-3.45;72.26
61109;BME280;46995;55.740;37.402;2024-02-21T06:39:43;100240.78;;;-3.44;71.81
61109;BME280;46995;55.740;37.402;2024-02-21T06:42:09;100240.69;;;-3.37;72.10
61109;BME280;46995;55.740;37.402;2024-02-21T06:44:34;100238.88;;;-3.32;71.38
61109;BME280;46995;55.740;37.402;2024-02-21T06:47:05;100236.25;;;-3.31;71.99
61109;BME280;46995;55.740;37.402;2024-02-21T06:49:31;100235.41;;;-3.31;71.92
61109;BME280;46995;55.740;37.402;2024-02-21T06:51:57;100233.53;;;-3.23;71.66
61109;BME280;46995;55.740;37.402;2024-02-21T06:54:22;100224.78;;;-3.16;71.29
61109;BME280;46995;55.740;37.402;2024-02-21T06:56:49;100229.75;;;-3.07;70.75
61109;BME280;46995;55.740;37.402;2024-02-21T06:59:14;100230.63;;;-3.07;70.24
61109;BME280;46995;55.740;37.402;2024-02-21T07:01:48;100226.31;;;-3.06;70.34
61109;BME280;46995;55.740;37.402;2024-02-21T07:04:14;100229.75;;;-3.07;70.64
61109;BME280;46995;55.740;37.402;2024-02-21T07:06:40;100221.06;;;-3.03;70.18
61109;BME280;46995;55.740;37.402;2024-02-21T07:09:07;100227.84;;;-2.97;70.61
61109;BME280;46995;55.740;37.402;2024-02-21T07:11:32;100219.16;;;-2.93;70.63
61109;BME280;46995;55.740;37.402;2024-02-21T07:13:58;100214.66;;;-2.84;70.69
61109;BME280;46995;55.740;37.402;2024-02-21T07:16:24;100217.06;;;-2.76;70.38
61109;BME280;46995;55.740;37.402;2024-02-21T07:18:50;100221.25;;;-2.71;70.85
61109;BME280;46995;55.740;37.402;2024-02-21T07:21:15;100219.53;;;-2.70;70.36
61109;BME280;46995;55.740;37.402;2024-02-21T07:23:41;100211.75;;;-2.69;70.71
61109;BME280;46995;55.740;37.402;2024-02-21T07:26:10;100213.38;;;-2.65;70.20
61109;BME280;46995;55.740;37.402;2024-02-21T07:28:36;100213.16;;;-2.56;70.05
61109;BME280;46995;55.740;37.402;2024-02-21T07:31:02;100221.50;;;-2.43;69.45
61109;BME280;46995;55.740;37.402;2024-02-21T07:33:32;100210.19;;;-2.37;70.43
61109;BME280;46995;55.740;37.402;2024-02-21T07:35:58;100214.00;;;-2.53;69.62
61109;BME280;46995;55.740;37.402;2024-02-21T07:38:26;100214.38;;;-2.72;69.92
61109;BME280;46995;55.740;37.402;2024-02-21T07:40:59;100215.59;;;-2.88;69.71
61109;BME280;46995;55.740;37.402;2024-02-21T07:43:27;100214.91;;;-2.97;69.35
61109;BME280;46995;55.740;37.402;2024-02-21T07:45:55;100212.44;;;-3.02;70.95
61109;BME280;46995;55.740;37.402;2024-02-21T07:48:21;100208.19;;;-3.05;70.76
61109;BME280;46995;55.740;37.402;2024-02-21T07:50:55;100214.25;;;-3.07;71.34
61109;BME280;46995;55.740;37.402;2024-02-21T07:53:21;100210.03;;;-3.10;71.38
61109;BME280;46995;55.740;37.402;2024-02-21T07:55:47;100202.28;;;-3.11;70.53
61109;BME280;46995;55.740;37.402;2024-02-21T07:58:18;100199.72;;;-3.13;71.31
61109;BME280;46995;55.740;37.402;2024-02-21T08:00:48;100198.03;;;-3.14;71.78
61109;BME280;46995;55.740;37.402;2024-02-21T08:03:14;100199.72;;;-3.11;71.27
61109;BME280;46995;55.740;37.402;2024-02-21T08:05:43;100202.22;;;-3.08;71.95
61109;BME280;46995;55.740;37.402;2024-02-21T08:08:11;100197.97;;;-3.11;70.23
61109;BME280;46995;55.740;37.402;2024-02-21T08:10:39;100197.06;;;-3.08;70.58
61109;BME280;46995;55.740;37.402;2024-02-21T08:13:05;100185.75;;;-3.03;70.95
61109;BME280;46995;55.740;37.402;2024-02-21T08:15:31;100185.59;;;-2.95;70.74
61109;BME280;46995;55.740;37.402;2024-02-21T08:17:59;100186.34;;;-2.90;70.79
61109;BME280;46995;55.740;37.402;2024-02-21T08:20:28;100188.06;;;-2.89;70.25
61109;BME280;46995;55.740;37.402;2024-02-21T08:22:55;100196.50;;;-2.81;70.76
61109;BME280;46995;55.740;37.402;2024-02-21T08:25:21;100196.38;;;-2.75;71.00
61109;BME280;46995;55.740;37.402;2024-02-21T08:27:46;100192.78;;;-2.68;70.96
61109;BME280;46995;55.740;37.402;2024-02-21T08:30:14;100194.44;;;-2.67;70.72
61109;BME280;46995;55.740;37.402;2024-02-21T08:32:40;100193.56;;;-2.66;70.81
61109;BME280;46995;55.740;37.402;2024-02-21T08:35:05;100203.72;;;-2.57;71.24
61109;BME280;46995;55.740;37.402;2024-02-21T08:37:31;100194.78;;;-2.42;70.98
61109;BME280;46995;55.740;37.402;2024-02-21T08:40:15;100192.53;;;-2.20;70.52
61109;BME280;46995;55.740;37.402;2024-02-21T08:42:51;100187.84;;;-2.04;69.73
61109;BME280;46995;55.740;37.402;2024-02-21T08:45:16;100182.31;;;-1.91;70.47
61109;BME280;46995;55.740;37.402;2024-02-21T08:47:43;100182.94;;;-1.81;69.71
61109;BME280;46995;55.740;37.402;2024-02-21T08:50:09;100190.53;;;-1.74;69.66
61109;BME280;46995;55.740;37.402;2024-02-21T08:52:36;100186.88;;;-1.66;69.73
61109;BME280;46995;55.740;37.402;2024-02-21T08:55:01;100175.50;;;-1.61;68.84
61109;BME280;46995;55.740;37.402;2024-02-21T08:57:27;100181.25;;;-1.50;69.04
61109;BME280;46995;55.740;37.402;2024-02-21T08:59:53;100176.63;;;-1.39;68.65
61109;BME280;46995;55.740;37.402;2024-02-21T09:02:20;100185.88;;;-1.30;68.42
61109;BME280;46995;55.740;37.402;2024-02-21T09:04:45;100183.22;;;-1.27;67.35
61109;BME280;46995;55.740;37.402;2024-02-21T09:07:11;100178.06;;;-1.29;68.13
61109;BME280;46995;55.740;37.402;2024-02-21T09:09:36;100175.38;;;-1.25;68.41
61109;BME280;46995;55.740;37.402;2024-02-21T09:12:06;100169.16;;;-1.18;68.10
61109;BME280;46995;55.740;37.402;2024-02-21T09:14:32;100167.22;;;-1.10;68.27
61109;BME280;46995;55.740;37.402;2024-02-21T09:16:58;100173.81;;;-1.00;68.55
61109;BME280;46995;55.740;37.402;2024-02-21T09:19:24;100161.50;;;-0.94;67.81
61109;BME280;46995;55.740;37.402;2024-02-21T09:21:49;100165.63;;;-0.87;68.14
61109;BME280;46995;55.740;37.402;2024-02-21T09:24:15;100160.44;;;-0.87;65.82
61109;BME280;46995;55.740;37.402;2024-02-21T09:26:41;100162.88;;;-0.80;66.83
61109;BME280;46995;55.740;37.402;2024-02-21T09:29:06;100163.47;;;-0.72;66.75
61109;BME280;46995;55.740;37.402;2024-02-21T09:31:34;100163.44;;;-0.71;66.12
61109;BME280;46995;55.740;37.402;2024-02-21T09:33:59;100164.09;;;-0.64;65.57
61109;BME280;46995;55.740;37.402;2024-02-21T09:36:25;100164.81;;;-0.59;66.46
61109;BME280;46995;55.740;37.402;2024-02-21T09:38:51;100155.50;;;-0.66;65.16
61109;BME280;46995;55.740;37.402;2024-02-21T09:41:18;100154.81;;;-0.71;67.09
61109;BME280;46995;55.740;37.402;2024-02-21T09:43:44;100148.75;;;-0.72;67.30
61109;BME280;46995;55.740;37.402;2024-02-21T09:46:17;100133.88;;;-0.65;67.32
61109;BME280;46995;55.740;37.402;2024-02-21T09:48:51;100145.75;;;-0.58;67.59
61109;BME280;46995;55.740;37.402;2024-02-21T09:51:20;100140.44;;;-0.54;66.88
61109;BME280;46995;55.740;37.402;2024-02-21T09:53:46;100147.25;;;-0.51;64.50
61109;BME280;46995;55.740;37.402;2024-02-21T09:56:31;100135.78;;;-0.44;66.24
61109;BME280;46995;55.740;37.402;2024-02-21T09:58:57;100131.13;;;-0.33;65.84
61109;BME280;46995;55.740;37.402;2024-02-21T10:01:23;100127.31;;;-0.23;65.12
61109;BME280;46995;55.740;37.402;2024-02-21T10:03:49;100133.28;;;-0.21;66.17
61109;BME280;46995;55.740;37.402;2024-02-21T10:06:15;100134.81;;;-0.14;66.31
61109;BME280;46995;55.740;37.402;2024-02-21T10:08:40;100133.91;;;-0.13;66.99
61109;BME280;46995;55.740;37.402;2024-02-21T10:11:06;100132.31;;;-0.17;66.97
61109;BME280;46995;55.740;37.402;2024-02-21T10:13:34;100132.31;;;-0.17;67.55
61109;BME280;46995;55.740;37.402;2024-02-21T10:16:07;100137.50;;;-0.17;67.37
61109;BME280;46995;55.740;37.402;2024-02-21T10:18:36;100138.97;;;-0.10;67.49
61109;BME280;46995;55.740;37.402;2024-02-21T10:21:07;100130.31;;;-0.09;67.22
61109;BME280;46995;55.740;37.402;2024-02-21T10:23:46;100129.75;;;-0.18;64.88
61109;BME280;46995;55.740;37.402;2024-02-21T10:26:12;100126.66;;;-0.29;66.76
61109;BME280;46995;55.740;37.402;2024-02-21T10:28:38;100139.78;;;-0.34;64.55
61109;BME280;46995;55.740;37.402;2024-02-21T10:31:11;100143.28;;;-0.35;66.23
61109;BME280;46995;55.740;37.402;2024-02-21T10:33:37;100133.16;;;-0.43;67.20
61109;BME280;46995;55.740;37.402;2024-02-21T10:36:22;100136.88;;;-0.51;66.55
61109;BME280;46995;55.740;37.402;2024-02-21T10:38:49;100135.09;;;-0.49;65.38
61109;BME280;46995;55.740;37.402;2024-02-21T10:41:15;100128.19;;;-0.50;65.70
61109;BME280;46995;55.740;37.402;2024-02-21T10:43:41;100130.91;;;-0.53;65.14
61109;BME280;46995;55.740;37.402;2024-02-21T10:46:11;100129.78;;;-0.46;65.04
61109;BME280;46995;55.740;37.402;2024-02-21T10:48:44;100139.25;;;-0.44;64.82
61109;BME280;46995;55.740;37.402;2024-02-21T10:58:49;100134.53;;;-0.59;67.05
61109;BME280;46995;55.740;37.402;2024-02-21T11:01:15;100131.88;;;-0.57;66.86
61109;BME280;46995;55.740;37.402;2024-02-21T11:03:43;100124.78;;;-0.52;66.73
61109;BME280;46995;55.740;37.402;2024-02-21T11:06:10;100116.75;;;-0.43;66.47
61109;BME280;46995;55.740;37.402;2024-02-21T11:08:37;100121.66;;;-0.35;66.45
61109;BME280;46995;55.740;37.402;2024-02-21T11:11:06;100116.44;;;-0.34;67.08
61109;BME280;46995;55.740;37.402;2024-02-21T11:13:35;100124.41;;;-0.40;66.20
61109;BME280;46995;55.740;37.402;2024-02-21T11:18:33;100116.31;;;-0.57;66.09
61109;BME280;46995;55.740;37.402;2024-02-21T11:20:59;100106.19;;;-0.65;65.80
61109;BME280;46995;55.740;37.402;2024-02-21T11:23:28;100104.75;;;-0.73;66.91
61109;BME280;46995;55.740;37.402;2024-02-21T11:26:07;100107.75;;;-0.87;66.92
61109;BME280;46995;55.740;37.402;2024-02-21T11:28:35;100107.06;;;-0.94;66.55
61109;BME280;46995;55.740;37.402;2024-02-21T11:31:13;100096.69;;;-0.94;67.63
61109;BME280;46995;55.740;37.402;2024-02-21T11:33:40;100096.78;;;-0.95;67.15
61109;BME280;46995;55.740;37.402;2024-02-21T11:36:06;100101.09;;;-0.96;67.30
61109;BME280;46995;55.740;37.402;2024-02-21T11:38:32;100095.09;;;-0.98;66.84
61109;BME280;46995;55.740;37.402;2024-02-21T11:41:16;100093.41;;;-0.99;66.05
61109;BME280;46995;55.740;37.402;2024-02-21T11:43:41;100089.84;;;-0.95;66.70
61109;BME280;46995;55.740;37.402;2024-02-21T11:46:07;100095.75;;;-0.90;66.44
61109;BME280;46995;55.740;37.402;2024-02-21T11:48:32;100087.00;;;-0.87;66.27
61109;BME280;46995;55.740;37.402;2024-02-21T11:50:58;100091.63;;;-0.97;67.07
61109;BME280;46995;55.740;37.402;2024-02-21T11:53:26;100092.06;;;-1.10;66.29
61109;BME280;46995;55.740;37.402;2024-02-21T11:55:56;100091.09;;;-1.08;66.53
61109;BME280;46995;55.740;37.402;2024-02-21T11:58:22;100091.81;;;-1.03;66.32
61109;BME280;46995;55.740;37.402;2024-02-21T12:00:48;100083.25;;;-1.05;65.02
61109;BME280;46995;55.740;37.402;2024-02-21T12:03:14;100075.59;;;-1.09;66.46
61109;BME280;46995;55.740;37.402;2024-02-21T12:05:40;100081.09;;;-1.20;66.60
61109;BME280;46995;55.740;37.402;2024-02-21T12:08:06;100071.13;;;-1.34;67.66
61109;BME280;46995;55.740;37.402;2024-02-21T12:10:34;100079.75;;;-1.33;67.37
61109;BME280;46995;55.740;37.402;2024-02-21T12:13:07;100080.75;;;-1.37;66.77
61109;BME280;46995;55.740;37.402;2024-02-21T12:15:33;100076.59;;;-1.43;66.52
61109;BME280;46995;55.740;37.402;2024-02-21T12:17:59;100076.53;;;-1.41;66.62
61109;BME280;46995;55.740;37.402;2024-02-21T12:20:25;100077.34;;;-1.39;67.15
61109;BME280;46995;55.740;37.402;2024-02-21T12:22:52;100072.03;;;-1.35;67.36
61109;BME280;46995;55.740;37.402;2024-02-21T12:25:21;100070.22;;;-1.31;66.90
61109;BME280;46995;55.740;37.402;2024-02-21T12:27:52;100069.22;;;-1.27;66.88
61109;BME280;46995;55.740;37.402;2024-02-21T12:30:18;100074.34;;;-1.25;67.03
61109;BME280;46995;55.740;37.402;2024-02-21T12:32:45;100069.22;;;-1.27;67.12
61109;BME280;46995;55.740;37.402;2024-02-21T12:35:10;100064.94;;;-1.28;67.65
61109;BME280;46995;55.740;37.402;2024-02-21T12:37:36;100074.53;;;-1.32;66.94
61109;BME280;46995;55.740;37.402;2024-02-21T12:40:04;100061.53;;;-1.30;67.19
61109;BME280;46995;55.740;37.402;2024-02-21T12:42:32;100063.16;;;-1.26;67.33
61109;BME280;46995;55.740;37.402;2024-02-21T12:44:58;100064.81;;;-1.25;66.72
61109;BME280;46995;55.740;37.402;2024-02-21T12:47:24;100055.38;;;-1.26;67.09
61109;BME280;46995;55.740;37.402;2024-02-21T12:49:52;100060.69;;;-1.31;66.37